createdAt,value
2019-04-14T00:02:05.295Z,98998.61
2019-04-14T00:04:42.308Z,98999.20
2019-04-14T00:07:10.572Z,98993.09
2019-04-14T00:09:38.043Z,98988.42
2019-04-14T00:12:10.534Z,98991.94
2019-04-14T00:14:38.313Z,98995.22
2019-04-14T00:17:06.566Z,98990.08
2019-04-14T00:19:36.965Z,98987.91
2019-04-14T00:22:05.322Z,98975.22
2019-04-14T00:24:33.575Z,98974.39
2019-04-14T00:27:01.941Z,98979.76
2019-04-14T00:29:30.409Z,98974.43
2019-04-14T00:31:58.713Z,98976.09
2019-04-14T00:34:33.859Z,98968.22
2019-04-14T00:37:20.569Z,98967.34
2019-04-14T00:40:06.172Z,98958.45
2019-04-14T00:42:51.582Z,98952.06
2019-04-14T00:45:36.111Z,98962.54
2019-04-14T00:48:09.058Z,98966.65
2019-04-14T00:50:31.993Z,98968.86
2019-04-14T00:52:59.057Z,98963.52
2019-04-14T00:55:27.082Z,98956.69
2019-04-14T00:57:54.973Z,98962.85
2019-04-14T01:00:23.385Z,98965.86
2019-04-14T01:02:53.724Z,98960.45
2019-04-14T01:05:21.756Z,98956.13
2019-04-14T01:07:50.029Z,98953.64
2019-04-14T01:10:17.099Z,98949.09
2019-04-14T01:12:45.227Z,98957.44
2019-04-14T01:15:13.591Z,98951.47
2019-04-14T01:17:41.673Z,98954.44
2019-04-14T01:20:10.078Z,98951.75
2019-04-14T01:22:38.065Z,98950.69
2019-04-14T01:25:08.473Z,98951.23
2019-04-14T01:27:40.558Z,98951.55
2019-04-14T01:30:08.849Z,98950.69
2019-04-14T01:32:35.796Z,98955.17
2019-04-14T01:35:03.544Z,98956.52
2019-04-14T01:37:31.512Z,98951.74
2019-04-14T01:39:58.880Z,98956.13
2019-04-14T01:42:26.763Z,98960.12
2019-04-14T01:44:54.676Z,98966.33
2019-04-14T01:47:22.731Z,98959.84
2019-04-14T01:49:50.811Z,98958.00
2019-04-14T01:52:23.788Z,98955.58
2019-04-14T01:55:09.260Z,98959.80
2019-04-14T01:57:48.230Z,98955.45
2019-04-14T02:00:20.786Z,98953.60
2019-04-14T02:02:48.690Z,98956.33
2019-04-14T02:05:16.725Z,98966.20
2019-04-14T02:07:45.070Z,98973.69
2019-04-14T02:10:12.842Z,98974.95
2019-04-14T02:12:40.899Z,98976.29
2019-04-14T02:15:09.087Z,98974.48
2019-04-14T02:17:37.117Z,98975.59
2019-04-14T02:20:06.305Z,98970.50
2019-04-14T02:22:33.570Z,98965.22
2019-04-14T02:25:03.822Z,98961.75
2019-04-14T02:27:31.754Z,98958.82
2019-04-14T02:29:58.698Z,98960.12
2019-04-14T02:33:00.535Z,98957.91
2019-04-14T02:35:21.074Z,98969.20
2019-04-14T02:37:55.974Z,98966.52
2019-04-14T02:42:46.775Z,98966.19
2019-04-14T02:45:19.125Z,98964.25
2019-04-14T02:50:15.771Z,98955.91
2019-04-14T02:53:01.631Z,98956.79
2019-04-14T02:55:10.910Z,98958.69
2019-04-14T02:57:38.233Z,98953.28
2019-04-14T03:00:16.744Z,98951.94
2019-04-14T03:02:41.184Z,98962.63
2019-04-14T03:05:03.683Z,98956.37
2019-04-14T03:07:36.165Z,98961.52
2019-04-14T03:10:06.849Z,98962.80
2019-04-14T03:12:38.437Z,98965.26
2019-04-14T03:18:13.915Z,98973.36
2019-04-14T03:20:27.812Z,98971.19
2019-04-14T03:23:15.369Z,98966.66
2019-04-14T03:25:34.229Z,98967.17
2019-04-14T03:28:38.493Z,98963.18
2019-04-14T03:31:14.904Z,98959.70
2019-04-14T03:33:49.391Z,98958.92
2019-04-14T03:36:17.219Z,98957.86
2019-04-14T03:38:24.462Z,98958.09
2019-04-14T03:41:00.118Z,98957.54
2019-04-14T03:45:53.907Z,98956.33
2019-04-14T03:50:48.594Z,98958.00
2019-04-14T03:53:24.063Z,98959.67
2019-04-14T03:55:54.555Z,98953.55
2019-04-14T03:58:18.135Z,98962.72
2019-04-14T04:00:46.456Z,98965.95
2019-04-14T04:03:13.345Z,98968.83
2019-04-14T04:05:41.363Z,98962.08
2019-04-14T04:08:09.272Z,98967.99
2019-04-14T04:10:44.582Z,98966.38
2019-04-14T04:13:12.587Z,98970.97
2019-04-14T04:15:41.109Z,98973.92
2019-04-14T04:18:24.914Z,98968.55
2019-04-14T04:20:56.742Z,98974.20
2019-04-14T04:23:29.611Z,98974.21
2019-04-14T04:25:59.478Z,98976.06
2019-04-14T04:28:42.861Z,98978.55
2019-04-14T04:31:11.615Z,98986.63
2019-04-14T04:33:41.459Z,98990.13
2019-04-14T04:36:11.540Z,98987.72
2019-04-14T04:38:55.461Z,98985.50
2019-04-14T04:41:23.245Z,98991.66
2019-04-14T04:43:50.087Z,98989.02
2019-04-14T04:46:17.697Z,98989.26
2019-04-14T04:48:57.467Z,98995.70
2019-04-14T04:51:13.936Z,98993.52
2019-04-14T04:53:41.888Z,98990.59
2019-04-14T04:56:10.041Z,98998.09
2019-04-14T04:58:37.341Z,98998.38
2019-04-14T05:01:04.204Z,98999.16
2019-04-14T05:03:31.829Z,98999.16
2019-04-14T05:06:20.402Z,98996.92
2019-04-14T05:08:50.148Z,99000.35
2019-04-14T05:11:23.060Z,99004.71
2019-04-14T05:13:51.256Z,99006.11
2019-04-14T05:16:19.220Z,99008.29
2019-04-14T05:18:46.365Z,99014.86
2019-04-14T05:21:13.145Z,99011.63
2019-04-14T05:23:41.015Z,99011.48
2019-04-14T05:26:09.205Z,99014.77
2019-04-14T05:28:37.418Z,99017.73
2019-04-14T05:31:05.371Z,99014.16
2019-04-14T05:33:33.543Z,99026.84
2019-04-14T05:36:02.112Z,99028.24
2019-04-14T05:38:32.107Z,99030.59
2019-04-14T05:40:58.434Z,99034.91
2019-04-14T05:43:34.202Z,99028.75
2019-04-14T05:45:54.511Z,99029.76
2019-04-14T05:48:25.088Z,99033.23
2019-04-14T05:50:53.320Z,99032.18
2019-04-14T05:53:20.314Z,99033.84
2019-04-14T05:55:50.319Z,99042.35
2019-04-14T05:58:18.485Z,99038.48
2019-04-14T06:00:48.230Z,99039.06
2019-04-14T06:03:16.651Z,99033.97
2019-04-14T06:05:45.041Z,99031.89
2019-04-14T06:08:12.107Z,99029.31
2019-04-14T06:10:39.252Z,99034.41
2019-04-14T06:13:06.426Z,99030.66
2019-04-14T06:15:34.263Z,99039.27
2019-04-14T06:18:01.064Z,99042.45
2019-04-14T06:20:28.333Z,99044.08
2019-04-14T06:22:55.113Z,99039.04
2019-04-14T06:25:22.244Z,99040.61
2019-04-14T06:27:49.021Z,99047.34
2019-04-14T06:30:18.496Z,99046.05
2019-04-14T06:32:46.898Z,99044.41
2019-04-14T06:35:21.705Z,99051.42
2019-04-14T06:37:50.543Z,99046.36
2019-04-14T06:40:18.557Z,99049.05
2019-04-14T06:42:45.437Z,99047.02
2019-04-14T06:45:12.632Z,99045.67
2019-04-14T06:47:39.857Z,99052.39
2019-04-14T06:50:07.313Z,99061.66
2019-04-14T06:52:34.083Z,99053.73
2019-04-14T06:55:04.833Z,99055.44
2019-04-14T06:57:31.972Z,99060.48
2019-04-14T06:59:59.696Z,99059.02
2019-04-14T07:02:26.524Z,99058.97
2019-04-14T07:04:53.550Z,99067.87
2019-04-14T07:07:20.425Z,99062.22
2019-04-14T07:09:47.203Z,99062.16
2019-04-14T07:12:14.095Z,99060.60
2019-04-14T07:14:41.159Z,99062.55
2019-04-14T07:17:08.320Z,99065.75
2019-04-14T07:19:35.078Z,99071.72
2019-04-14T07:22:02.281Z,99070.41
2019-04-14T07:24:31.616Z,99071.21
2019-04-14T07:26:58.443Z,99069.73
2019-04-14T07:29:27.778Z,99065.69
2019-04-14T07:32:06.241Z,99067.09
2019-04-14T07:34:47.157Z,99062.30
2019-04-14T07:37:20.027Z,99066.38
2019-04-14T07:39:48.808Z,99062.63
2019-04-14T07:42:17.617Z,99063.19
2019-04-14T07:44:47.239Z,99069.40
2019-04-14T07:47:15.960Z,99070.50
2019-04-14T07:49:57.879Z,99069.80
2019-04-14T07:52:29.269Z,99066.83
2019-04-14T07:55:06.920Z,99061.25
2019-04-14T07:57:35.570Z,99058.11
2019-04-14T08:00:10.897Z,99064.52
2019-04-14T08:02:59.736Z,99064.25
2019-04-14T08:05:31.878Z,99056.94
2019-04-14T08:08:00.198Z,99062.08
2019-04-14T08:10:26.991Z,99065.48
2019-04-14T08:12:53.792Z,99068.09
2019-04-14T08:15:23.854Z,99069.16
2019-04-14T08:17:50.792Z,99068.13
2019-04-14T08:20:27.438Z,99075.41
2019-04-14T08:22:46.469Z,99069.63
2019-04-14T08:25:13.449Z,99066.66
2019-04-14T08:27:40.326Z,99071.81
2019-04-14T08:30:07.794Z,99069.47
2019-04-14T08:32:34.635Z,99062.76
2019-04-14T08:35:02.087Z,99068.65
2019-04-14T08:37:28.940Z,99074.02
2019-04-14T08:39:55.947Z,99070.03
2019-04-14T08:42:31.869Z,99074.45
2019-04-14T08:45:00.619Z,99068.05
2019-04-14T08:47:41.327Z,99065.73
2019-04-14T08:50:24.763Z,99073.56
2019-04-14T08:52:56.531Z,99076.28
2019-04-14T08:55:34.317Z,99080.96
2019-04-14T08:58:05.841Z,99089.36
2019-04-14T09:00:40.536Z,99080.30
2019-04-14T09:03:15.462Z,99079.30
2019-04-14T09:05:57.652Z,99083.86
2019-04-14T09:08:38.230Z,99084.42
2019-04-14T09:11:06.910Z,99086.35
2019-04-14T09:13:34.124Z,99089.59
2019-04-14T09:16:00.882Z,99093.20
2019-04-14T09:18:27.664Z,99095.11
2019-04-14T09:20:54.417Z,99095.06
2019-04-14T09:23:21.381Z,99099.95
2019-04-14T09:25:48.288Z,99104.05
2019-04-14T09:28:15.027Z,99097.58
2019-04-14T09:30:44.025Z,99097.85
2019-04-14T09:33:10.777Z,99098.91
2019-04-14T09:35:38.089Z,99095.42
2019-04-14T09:38:04.880Z,99094.05
2019-04-14T09:40:32.190Z,99102.67
2019-04-14T09:42:59.104Z,99101.61
2019-04-14T09:45:27.826Z,99098.62
2019-04-14T09:47:54.945Z,99100.00
2019-04-14T09:50:22.094Z,99104.58
2019-04-14T09:52:48.852Z,99101.36
2019-04-14T09:55:16.309Z,99100.53
2019-04-14T09:57:45.934Z,99106.75
2019-04-14T10:00:14.576Z,99099.73
2019-04-14T10:02:41.523Z,99106.22
2019-04-14T10:05:08.495Z,99111.84
2019-04-14T10:07:35.363Z,99105.66
2019-04-14T10:10:03.965Z,99097.83
2019-04-14T10:12:31.425Z,99098.86
2019-04-14T10:14:58.412Z,99102.63
2019-04-14T10:17:25.417Z,99099.88
2019-04-14T10:19:54.712Z,99104.73
2019-04-14T10:22:33.708Z,99106.30
2019-04-14T10:24:53.483Z,99116.54
2019-04-14T10:27:20.320Z,99109.56
2019-04-14T10:29:47.249Z,99113.02
2019-04-14T10:32:14.010Z,99115.73
2019-04-14T10:34:43.998Z,99115.70
2019-04-14T10:37:10.860Z,99112.54
2019-04-14T10:39:37.986Z,99116.47
2019-04-14T10:42:04.845Z,99114.20
2019-04-14T10:44:31.660Z,99107.27
2019-04-14T10:46:59.042Z,99106.28
2019-04-14T10:49:25.982Z,99102.31
2019-04-14T10:51:53.295Z,99113.14
2019-04-14T10:54:20.403Z,99117.91
2019-04-14T10:56:47.433Z,99115.05
2019-04-14T10:59:16.145Z,99114.70
2019-04-14T11:01:43.080Z,99107.69
2019-04-14T11:04:10.327Z,99105.12
2019-04-14T11:06:39.058Z,99109.81
2019-04-14T11:09:08.296Z,99107.52
2019-04-14T11:11:35.449Z,99107.16
2019-04-14T11:14:02.982Z,99107.50
2019-04-14T11:16:30.094Z,99107.27
2019-04-14T11:18:56.912Z,99098.53
2019-04-14T11:21:24.104Z,99096.56
2019-04-14T11:23:50.980Z,99097.45
2019-04-14T11:26:20.485Z,99094.73
2019-04-14T11:28:47.335Z,99096.94
2019-04-14T11:31:16.010Z,99095.48
2019-04-14T11:33:59.620Z,99091.92
2019-04-14T11:36:31.398Z,99089.65
2019-04-14T11:39:00.659Z,99089.38
2019-04-14T11:41:27.610Z,99100.05
2019-04-14T11:43:54.319Z,99100.19
2019-04-14T11:46:21.193Z,99104.52
2019-04-14T11:48:48.165Z,99106.91
2019-04-14T11:51:15.492Z,99105.70
2019-04-14T11:53:43.154Z,99112.11
2019-04-14T11:56:10.233Z,99107.46
2019-04-14T11:58:37.290Z,99114.28
2019-04-14T12:01:10.441Z,99112.88
2019-04-14T12:03:41.283Z,99114.95
2019-04-14T12:06:28.581Z,99121.38
2019-04-14T12:08:59.881Z,99116.94
2019-04-14T12:11:26.976Z,99120.83
2019-04-14T12:13:53.961Z,99116.50
2019-04-14T12:16:20.847Z,99111.37
2019-04-14T12:18:47.642Z,99108.81
2019-04-14T12:21:14.536Z,99115.13
2019-04-14T12:23:43.397Z,99117.34
2019-04-14T12:26:10.754Z,99125.08
2019-04-14T12:28:38.326Z,99117.20
2019-04-14T12:31:08.452Z,99118.01
2019-04-14T12:33:35.959Z,99122.04
2019-04-14T12:36:08.994Z,99116.11
2019-04-14T12:38:36.704Z,99116.50
2019-04-14T12:41:06.129Z,99123.11
2019-04-14T12:43:47.237Z,99118.06
2019-04-14T12:46:32.419Z,99106.98
2019-04-14T12:49:01.740Z,99115.67
2019-04-14T12:51:34.222Z,99116.75
2019-04-14T12:54:01.069Z,99117.60
2019-04-14T12:56:29.425Z,99112.89
2019-04-14T12:58:59.889Z,99114.14
2019-04-14T13:01:28.880Z,99116.09
2019-04-14T13:03:58.441Z,99107.23
2019-04-14T13:06:27.884Z,99107.40
2019-04-14T13:08:55.133Z,99103.67
2019-04-14T13:11:22.697Z,99107.04
2019-04-14T13:13:49.581Z,99107.59
2019-04-14T13:16:16.790Z,99111.05
2019-04-14T13:18:43.817Z,99102.56
2019-04-14T13:21:10.896Z,99110.00
2019-04-14T13:23:37.837Z,99108.44
2019-04-14T13:26:06.401Z,99102.61
2019-04-14T13:28:35.524Z,99104.55
2019-04-14T13:31:02.387Z,99104.70
2019-04-14T13:33:29.157Z,99101.33
2019-04-14T13:35:56.332Z,99104.61
2019-04-14T13:38:23.264Z,99104.59
2019-04-14T13:40:50.457Z,99104.19
2019-04-14T13:43:17.665Z,99105.83
2019-04-14T13:45:44.712Z,99109.47
2019-04-14T13:48:11.956Z,99106.17
2019-04-14T13:50:39.108Z,99106.83
2019-04-14T13:53:06.368Z,99109.16
2019-04-14T13:55:33.391Z,99106.04
2019-04-14T13:58:00.729Z,99110.34
2019-04-14T14:00:30.489Z,99112.77
2019-04-14T14:02:57.484Z,99111.20
2019-04-14T14:05:24.786Z,99103.11
2019-04-14T14:07:52.110Z,99107.35
2019-04-14T14:10:22.055Z,99108.62
2019-04-14T14:12:52.546Z,99105.59
2019-04-14T14:15:31.585Z,99103.95
2019-04-14T14:18:17.110Z,99096.05
2019-04-14T14:21:05.346Z,99101.14
2019-04-14T14:23:49.300Z,99098.52
2019-04-14T14:26:28.172Z,99101.98
2019-04-14T14:28:55.564Z,99093.27
2019-04-14T14:31:23.123Z,99103.48
2019-04-14T14:33:50.180Z,99100.41
2019-04-14T14:36:16.919Z,99095.71
2019-04-14T14:38:46.709Z,99094.97
2019-04-14T14:41:15.448Z,99095.79
2019-04-14T14:43:42.334Z,99096.81
2019-04-14T14:46:29.447Z,99094.37
2019-04-14T14:49:07.036Z,99094.35
2019-04-14T14:51:41.893Z,99093.69
2019-04-14T14:54:11.261Z,99091.57
2019-04-14T14:56:38.601Z,99090.59
2019-04-14T14:59:06.898Z,99086.32
2019-04-14T15:01:33.866Z,99085.56
2019-04-14T15:04:01.027Z,99082.19
2019-04-14T15:06:27.927Z,99083.31
2019-04-14T15:08:55.335Z,99078.16
2019-04-14T15:11:22.368Z,99082.23
2019-04-14T15:13:53.698Z,99084.70
2019-04-14T15:16:23.876Z,99086.70
2019-04-14T15:18:53.078Z,99090.89
2019-04-14T15:21:21.801Z,99089.70
2019-04-14T15:23:49.245Z,99089.66
2019-04-14T15:26:16.763Z,99086.56
2019-04-14T15:28:48.325Z,99089.11
2019-04-14T15:31:15.552Z,99088.31
2019-04-14T15:33:43.070Z,99093.37
2019-04-14T15:36:13.824Z,99094.69
2019-04-14T15:38:42.234Z,99097.77
2019-04-14T15:41:11.481Z,99096.32
2019-04-14T15:43:39.872Z,99096.66
2019-04-14T15:46:24.977Z,99100.23
2019-04-14T15:49:10.081Z,99103.68
2019-04-14T15:51:56.091Z,99112.95
2019-04-14T15:54:43.575Z,99111.84
2019-04-14T15:57:39.881Z,99112.45
2019-04-14T16:00:43.700Z,99110.66
2019-04-14T16:03:31.165Z,99108.66
2019-04-14T16:06:19.628Z,99113.14
2019-04-14T16:09:20.556Z,99111.29
2019-04-14T16:12:08.272Z,99115.16
2019-04-14T16:14:41.160Z,99120.32
2019-04-14T16:17:18.760Z,99113.74
2019-04-14T16:19:45.960Z,99117.80
2019-04-14T16:22:12.710Z,99118.23
2019-04-14T16:24:42.724Z,99115.39
2019-04-14T16:27:12.174Z,99116.75
2019-04-14T16:29:52.735Z,99125.64
2019-04-14T16:32:36.579Z,99124.80
2019-04-14T16:35:09.249Z,99128.69
2019-04-14T16:37:38.144Z,99134.26
2019-04-14T16:40:06.253Z,99137.11
2019-04-14T16:42:33.402Z,99141.58
2019-04-14T16:45:00.318Z,99144.39
2019-04-14T16:47:28.364Z,99140.37
2019-04-14T16:49:57.723Z,99146.91
2019-04-14T16:52:26.404Z,99150.45
2019-04-14T16:54:53.175Z,99148.84
2019-04-14T16:57:38.216Z,99154.30
2019-04-14T17:00:31.048Z,99159.19
2019-04-14T17:03:15.879Z,99162.42
2019-04-14T17:06:01.135Z,99166.81
2019-04-14T17:08:46.072Z,99169.31
2019-04-14T17:11:30.919Z,99166.13
2019-04-14T17:14:20.764Z,99175.43
2019-04-14T17:16:53.419Z,99177.71
2019-04-14T17:19:33.002Z,99187.52
2019-04-14T17:22:17.724Z,99181.89
2019-04-14T17:25:00.980Z,99186.53
2019-04-14T17:27:59.919Z,99188.27
2019-04-14T17:30:56.846Z,99194.83
2019-04-14T17:33:43.549Z,99200.02
2019-04-14T17:36:10.698Z,99207.36
2019-04-14T17:38:46.350Z,99207.96
2019-04-14T17:41:28.699Z,99211.76
2019-04-14T17:43:57.340Z,99216.65
2019-04-14T17:46:24.225Z,99224.54
2019-04-14T17:48:53.865Z,99223.78
2019-04-14T17:51:25.995Z,99233.02
2019-04-14T17:54:11.946Z,99236.02
2019-04-14T17:56:57.595Z,99236.05
2019-04-14T17:59:26.315Z,99243.11
2019-04-14T18:02:06.932Z,99241.75
2019-04-14T18:04:34.066Z,99250.98
2019-04-14T18:07:10.104Z,99256.16
2019-04-14T18:09:43.152Z,99256.17
2019-04-14T18:12:15.084Z,99252.42
2019-04-14T18:14:53.321Z,99263.81
2019-04-14T18:17:23.144Z,99270.84
2019-04-14T18:19:52.243Z,99270.56
2019-04-14T18:22:19.367Z,99272.22
2019-04-14T18:24:46.309Z,99271.41
2019-04-14T18:27:13.679Z,99280.86
2019-04-14T18:29:48.285Z,99277.92
2019-04-14T18:32:27.817Z,99275.75
2019-04-14T18:34:56.649Z,99278.45
2019-04-14T18:37:29.854Z,99291.69
2019-04-14T18:40:01.707Z,99290.91
2019-04-14T18:42:32.967Z,99296.05
2019-04-14T18:45:08.784Z,99301.98
2019-04-14T18:47:37.722Z,99305.23
2019-04-14T18:50:23.801Z,99310.10
2019-04-14T18:53:01.936Z,99313.61
2019-04-14T18:55:47.979Z,99319.56
2019-04-14T18:58:20.821Z,99322.80
2019-04-14T19:00:58.272Z,99325.75
2019-04-14T19:03:25.398Z,99327.88
2019-04-14T19:05:52.273Z,99329.78
2019-04-14T19:08:19.145Z,99333.01
2019-04-14T19:10:53.674Z,99332.22
2019-04-14T19:13:31.577Z,99338.42
2019-04-14T19:15:58.627Z,99342.46
2019-04-14T19:18:29.944Z,99351.34
2019-04-14T19:21:01.657Z,99355.67
2019-04-14T19:23:28.571Z,99357.56
2019-04-14T19:25:55.479Z,99352.67
2019-04-14T19:28:22.221Z,99362.64
2019-04-14T19:30:49.518Z,99361.80
2019-04-14T19:33:16.456Z,99370.13
2019-04-14T19:35:43.413Z,99368.45
2019-04-14T19:38:10.237Z,99370.03
2019-04-14T19:40:37.247Z,99371.62
2019-04-14T19:43:04.474Z,99373.75
2019-04-14T19:45:31.722Z,99371.55
2019-04-14T19:48:01.207Z,99367.20
2019-04-14T19:50:28.097Z,99369.92
2019-04-14T19:52:55.226Z,99370.44
2019-04-14T19:55:22.027Z,99382.55
2019-04-14T19:57:49.361Z,99381.72
2019-04-14T20:00:16.862Z,99386.07
2019-04-14T20:02:43.666Z,99393.64
2019-04-14T20:05:11.429Z,99395.68
2019-04-14T20:07:41.065Z,99396.78
2019-04-14T20:10:09.617Z,99402.45
2019-04-14T20:12:36.756Z,99408.64
2019-04-14T20:15:06.228Z,99409.88
2019-04-14T20:17:52.866Z,99415.43
2019-04-14T20:20:38.464Z,99419.94
2019-04-14T20:23:06.210Z,99423.23
2019-04-14T20:25:41.874Z,99430.80
2019-04-14T20:28:14.090Z,99431.23
2019-04-14T20:30:42.886Z,99429.92
2019-04-14T20:33:09.770Z,99433.55
2019-04-14T20:35:36.652Z,99436.37
2019-04-14T20:38:03.800Z,99430.52
2019-04-14T20:40:31.876Z,99433.73
2019-04-14T20:42:58.788Z,99443.38
2019-04-14T20:45:25.675Z,99442.70
2019-04-14T20:47:52.728Z,99452.36
2019-04-14T20:50:20.010Z,99453.97
2019-04-14T20:52:46.706Z,99450.67
2019-04-14T20:55:13.876Z,99452.01
2019-04-14T20:57:40.945Z,99450.38
2019-04-14T21:00:08.827Z,99455.55
2019-04-14T21:02:54.165Z,99457.78
2019-04-14T21:05:23.435Z,99451.38
2019-04-14T21:07:58.819Z,99459.59
2019-04-14T21:10:31.279Z,99461.00
2019-04-14T21:13:16.440Z,99458.31
2019-04-14T21:16:12.110Z,99461.02
2019-04-14T21:18:36.469Z,99463.49
2019-04-14T21:21:05.247Z,99463.47
2019-04-14T21:23:33.906Z,99466.84
2019-04-14T21:26:09.656Z,99468.48
2019-04-14T21:28:36.576Z,99467.47
2019-04-14T21:31:05.861Z,99461.71
2019-04-14T21:33:34.643Z,99463.50
2019-04-14T21:36:07.086Z,99469.05
2019-04-14T21:38:33.848Z,99471.03
2019-04-14T21:41:02.567Z,99475.56
2019-04-14T21:43:29.327Z,99477.97
2019-04-14T21:45:56.703Z,99482.92
2019-04-14T21:48:23.560Z,99486.03
2019-04-14T21:50:50.651Z,99488.21
2019-04-14T21:53:17.431Z,99497.46
2019-04-14T21:55:44.452Z,99497.23
2019-04-14T21:58:13.377Z,99496.66
2019-04-14T22:01:04.195Z,99497.00
2019-04-14T22:03:35.739Z,99498.25
2019-04-14T22:06:13.871Z,99496.58
2019-04-14T22:08:48.266Z,99500.32
2019-04-14T22:11:27.307Z,99506.95
2019-04-14T22:13:54.179Z,99505.42
2019-04-14T22:16:21.262Z,99504.61
2019-04-14T22:18:48.662Z,99503.89
2019-04-14T22:21:16.004Z,99500.86
2019-04-14T22:23:43.562Z,99497.67
2019-04-14T22:26:10.731Z,99492.70
2019-04-14T22:28:37.914Z,99498.46
2019-04-14T22:31:05.208Z,99500.19
2019-04-14T22:33:35.493Z,99496.06
2019-04-14T22:36:02.873Z,99493.63
2019-04-14T22:38:30.066Z,99504.52
2019-04-14T22:40:57.205Z,99507.38
2019-04-14T22:43:24.672Z,99499.77
2019-04-14T22:45:51.632Z,99497.55
2019-04-14T22:48:18.560Z,99503.22
2019-04-14T22:50:45.324Z,99502.89
2019-04-14T22:53:12.477Z,99499.77
2019-04-14T22:55:39.807Z,99499.02
2019-04-14T22:58:06.507Z,99502.14
2019-04-14T23:00:42.614Z,99503.36
2019-04-14T23:03:20.676Z,99504.71
2019-04-14T23:05:52.090Z,99493.86
2019-04-14T23:08:23.993Z,99496.25
2019-04-14T23:11:10.958Z,99500.88
2019-04-14T23:13:43.497Z,99504.44
2019-04-14T23:16:12.305Z,99497.42
2019-04-14T23:18:43.820Z,99495.74
2019-04-14T23:21:20.140Z,99490.33
2019-04-14T23:23:51.769Z,99488.75
2019-04-14T23:26:18.726Z,99493.88
2019-04-14T23:28:46.000Z,99490.14
2019-04-14T23:31:13.044Z,99492.47
2019-04-14T23:33:40.212Z,99496.44
2019-04-14T23:36:08.123Z,99497.71
2019-04-14T23:38:34.909Z,99494.09
2019-04-14T23:41:01.811Z,99495.01
2019-04-14T23:43:29.794Z,99488.51
2019-04-14T23:45:56.565Z,99489.38
2019-04-14T23:48:23.538Z,99493.88
2019-04-14T23:50:50.337Z,99493.77
2019-04-14T23:53:17.207Z,99490.83
2019-04-14T23:55:44.184Z,99488.97
2019-04-14T23:58:11.609Z,99491.06
